createdAt,value
2023-05-10T00:00:18.847Z,53
2023-05-10T00:05:18.526Z,53
2023-05-10T00:10:18.774Z,55
2023-05-10T00:15:15.640Z,58
2023-05-10T00:20:15.767Z,58
2023-05-10T00:25:18.703Z,58
2023-05-10T00:30:18.661Z,58
2023-05-10T00:35:18.585Z,58
2023-05-10T00:40:18.920Z,59
2023-05-10T00:45:18.596Z,60
2023-05-10T00:50:18.820Z,62
2023-05-10T00:55:18.700Z,63
2023-05-10T01:00:18.780Z,63
2023-05-10T01:05:18.837Z,63
2023-05-10T01:10:15.753Z,63
2023-05-10T01:15:18.837Z,63
2023-05-10T01:20:19.043Z,64
2023-05-10T01:25:18.709Z,64
2023-05-10T01:30:18.626Z,65
2023-05-10T01:35:18.698Z,67
2023-05-10T01:40:18.763Z,68
2023-05-10T01:45:18.719Z,68
2023-05-10T01:50:19.147Z,69
2023-05-10T01:55:18.738Z,71
2023-05-10T02:00:16.012Z,71
2023-05-10T02:05:15.699Z,71
2023-05-10T02:10:19.153Z,72
2023-05-10T02:15:18.712Z,74
2023-05-10T02:20:18.998Z,75
2023-05-10T02:25:18.850Z,75
2023-05-10T02:30:18.807Z,73
2023-05-10T02:35:18.881Z,75
2023-05-10T02:40:18.947Z,74
2023-05-10T02:45:18.983Z,76
2023-05-10T02:50:19.059Z,78
2023-05-10T02:55:15.837Z,79
2023-05-10T03:00:16.005Z,79
2023-05-10T03:05:18.949Z,80
2023-05-10T03:10:19.179Z,78
2023-05-10T03:15:19.016Z,78
2023-05-10T03:20:19.153Z,79
2023-05-10T03:25:18.985Z,79
2023-05-10T03:30:19.113Z,79
2023-05-10T03:35:18.949Z,80
2023-05-10T03:40:19.215Z,80
2023-05-10T03:45:18.949Z,82
2023-05-10T03:50:16.191Z,82
2023-05-10T03:55:15.882Z,82
2023-05-10T04:00:20.220Z,82
2023-05-10T04:05:20.293Z,82
2023-05-10T04:10:20.266Z,83
2023-05-10T04:15:20.307Z,84
2023-05-10T04:20:17.417Z,84
2023-05-10T04:25:20.398Z,85
2023-05-10T04:30:20.375Z,85
2023-05-10T04:35:20.279Z,85
2023-05-10T04:40:20.290Z,86
2023-05-10T04:45:20.297Z,86
2023-05-10T04:50:20.276Z,87
2023-05-10T04:55:20.341Z,88
2023-05-10T05:00:20.404Z,88
2023-05-10T05:05:20.330Z,88
2023-05-10T05:10:17.639Z,88
2023-05-10T05:15:17.139Z,88
2023-05-10T05:20:20.425Z,89
2023-05-10T05:25:20.375Z,89
2023-05-10T05:30:20.329Z,90
2023-05-10T05:35:20.424Z,90
2023-05-10T05:40:20.413Z,90
2023-05-10T05:45:20.642Z,90
2023-05-10T05:50:20.241Z,90
2023-05-10T05:55:20.474Z,90
2023-05-10T06:00:20.412Z,90
2023-05-10T06:05:17.524Z,90
2023-05-10T06:10:17.305Z,91
2023-05-10T06:15:20.443Z,91
2023-05-10T06:20:20.449Z,91
2023-05-10T06:25:20.446Z,91
2023-05-10T06:30:20.494Z,92
2023-05-10T06:35:20.426Z,92
2023-05-10T06:40:20.554Z,92
2023-05-10T06:45:20.612Z,92
2023-05-10T06:50:20.540Z,92
2023-05-10T06:55:20.609Z,92
2023-05-10T07:00:17.669Z,92
2023-05-10T07:05:17.683Z,92
2023-05-10T07:10:20.462Z,92
2023-05-10T07:15:20.509Z,92
2023-05-10T07:20:20.564Z,92
2023-05-10T07:25:20.584Z,92
2023-05-10T07:30:20.609Z,92
2023-05-10T07:35:20.676Z,93
2023-05-10T07:40:20.568Z,93
2023-05-10T07:45:20.797Z,93
2023-05-10T07:50:20.567Z,93
2023-05-10T07:55:17.611Z,93
2023-05-10T08:00:18.646Z,93
2023-05-10T08:05:18.989Z,93
2023-05-10T08:10:18.477Z,93
2023-05-10T08:15:18.808Z,93
2023-05-10T08:20:18.676Z,93
2023-05-10T08:25:18.938Z,93
2023-05-10T08:30:15.610Z,93
2023-05-10T08:35:15.723Z,93
2023-05-10T08:40:18.579Z,93
2023-05-10T08:45:18.869Z,93
2023-05-10T08:50:18.721Z,93
2023-05-10T08:55:18.729Z,93
2023-05-10T09:00:18.693Z,93
2023-05-10T09:05:18.811Z,93
2023-05-10T09:10:18.659Z,93
2023-05-10T09:15:18.912Z,93
2023-05-10T09:20:18.699Z,93
2023-05-10T09:25:15.867Z,94
2023-05-10T09:30:15.630Z,93
2023-05-10T09:35:19.084Z,93
2023-05-10T09:40:18.926Z,93
2023-05-10T09:45:18.904Z,94
2023-05-10T09:50:18.778Z,94
2023-05-10T09:55:18.862Z,94
2023-05-10T10:00:18.893Z,93
2023-05-10T10:05:18.949Z,94
2023-05-10T10:10:18.970Z,94
2023-05-10T10:15:19.161Z,94
2023-05-10T10:20:16.080Z,94
2023-05-10T10:25:15.820Z,94
2023-05-10T10:30:18.952Z,94
2023-05-10T10:35:18.968Z,94
2023-05-10T10:40:18.970Z,94
2023-05-10T10:45:19.153Z,94
2023-05-10T10:50:18.855Z,94
2023-05-10T10:55:19.405Z,94
2023-05-10T11:00:18.817Z,94
2023-05-10T11:05:19.077Z,94
2023-05-10T11:10:18.889Z,94
2023-05-10T11:15:16.145Z,92
2023-05-10T11:20:19.236Z,88
2023-05-10T11:25:19.022Z,84
2023-05-10T11:30:19.160Z,80
2023-05-10T11:35:18.954Z,76
2023-05-10T11:40:19.152Z,65
2023-05-10T11:45:18.897Z,58
2023-05-10T11:50:19.271Z,52
2023-05-10T11:55:19.054Z,49
2023-05-10T12:00:19.300Z,54
2023-05-10T12:05:15.967Z,50
2023-05-10T12:10:16.472Z,47
2023-05-10T12:15:19.142Z,45
2023-05-10T12:20:19.303Z,45
2023-05-10T12:25:19.082Z,45
2023-05-10T12:30:19.122Z,43
2023-05-10T12:35:19.005Z,45
2023-05-10T12:40:19.332Z,44
2023-05-10T12:45:19.104Z,43
2023-05-10T12:50:19.051Z,42
2023-05-10T12:55:19.132Z,42
2023-05-10T13:00:16.246Z,40
2023-05-10T13:05:16.125Z,39
2023-05-10T13:10:19.416Z,41
2023-05-10T13:15:19.091Z,41
2023-05-10T13:20:19.288Z,39
2023-05-10T13:25:19.143Z,39
2023-05-10T13:30:19.380Z,37
2023-05-10T13:35:19.199Z,36
2023-05-10T13:40:19.232Z,36
2023-05-10T13:45:19.391Z,38
2023-05-10T13:50:16.160Z,36
2023-05-10T13:55:16.125Z,34
2023-05-10T14:00:19.237Z,36
2023-05-10T14:05:21.058Z,35
2023-05-10T14:10:19.290Z,35
2023-05-10T14:15:19.557Z,34
2023-05-10T14:20:19.203Z,34
2023-05-10T14:25:19.661Z,35
2023-05-10T14:30:19.254Z,33
2023-05-10T14:35:20.053Z,33
2023-05-10T14:40:19.167Z,30
2023-05-10T14:45:16.390Z,31
2023-05-10T14:50:28.246Z,34
2023-05-10T14:55:19.326Z,33
2023-05-10T15:00:19.432Z,30
2023-05-10T15:05:19.573Z,31
2023-05-10T15:10:19.314Z,31
2023-05-10T15:15:19.369Z,31
2023-05-10T15:20:19.327Z,30
2023-05-10T15:25:19.552Z,28
2023-05-10T15:30:19.290Z,27
2023-05-10T15:35:16.487Z,29
2023-05-10T15:40:16.214Z,29
2023-05-10T15:45:19.833Z,28
2023-05-10T15:50:19.328Z,30
2023-05-10T15:55:19.576Z,26
2023-05-10T16:00:19.395Z,27
2023-05-10T16:05:19.765Z,24
2023-05-10T16:10:19.429Z,28
2023-05-10T16:15:19.398Z,28
2023-05-10T16:20:19.372Z,27
2023-05-10T16:25:19.485Z,27
2023-05-10T16:30:16.381Z,26
2023-05-10T16:35:16.477Z,24
2023-05-10T16:40:19.613Z,25
2023-05-10T16:45:19.473Z,26
2023-05-10T16:50:19.521Z,24
2023-05-10T16:55:19.698Z,27
2023-05-10T17:00:19.434Z,25
2023-05-10T17:05:19.776Z,25
2023-05-10T17:10:19.446Z,26
2023-05-10T17:15:19.739Z,25
2023-05-10T17:20:19.449Z,25
2023-05-10T17:25:16.554Z,26
2023-05-10T17:30:16.547Z,26
2023-05-10T17:35:19.498Z,25
2023-05-10T17:40:19.619Z,25
2023-05-10T17:45:19.845Z,28
2023-05-10T17:50:19.549Z,25
2023-05-10T17:55:19.695Z,27
2023-05-10T18:00:19.663Z,28
2023-05-10T18:05:19.808Z,25
2023-05-10T18:10:19.514Z,24
2023-05-10T18:15:16.575Z,27
2023-05-10T18:20:16.405Z,25
2023-05-10T18:25:19.749Z,26
2023-05-10T18:30:19.686Z,29
2023-05-10T18:35:19.680Z,25
2023-05-10T18:40:19.595Z,25
2023-05-10T18:45:19.646Z,27
2023-05-10T18:50:19.680Z,27
2023-05-10T18:55:19.775Z,27
2023-05-10T19:00:19.579Z,27
2023-05-10T19:05:19.910Z,27
2023-05-10T19:10:16.468Z,26
2023-05-10T19:15:18.522Z,25
2023-05-10T19:20:19.610Z,24
2023-05-10T19:25:20.277Z,26
2023-05-10T19:30:19.729Z,27
2023-05-10T19:35:19.581Z,27
2023-05-10T19:40:19.750Z,25
2023-05-10T19:45:19.713Z,25
2023-05-10T19:50:19.698Z,25
2023-05-10T19:55:19.679Z,28
2023-05-10T20:00:16.685Z,25
2023-05-10T20:05:16.891Z,27
2023-05-10T20:10:19.901Z,27
2023-05-10T20:15:19.709Z,26
2023-05-10T20:20:19.968Z,30
2023-05-10T20:25:19.673Z,25
2023-05-10T20:30:20.273Z,25
2023-05-10T20:35:19.681Z,25
2023-05-10T20:40:19.867Z,27
2023-05-10T20:45:19.724Z,27
2023-05-10T20:50:19.859Z,26
2023-05-10T20:55:16.661Z,27
2023-05-10T21:00:17.038Z,27
2023-05-10T21:05:19.841Z,25
2023-05-10T21:10:19.757Z,27
2023-05-10T21:15:19.734Z,26
2023-05-10T21:20:19.930Z,26
2023-05-10T21:25:19.738Z,25
2023-05-10T21:30:20.022Z,25
2023-05-10T21:35:19.762Z,27
2023-05-10T21:40:20.293Z,27
2023-05-10T21:45:19.887Z,24
2023-05-10T21:50:16.764Z,25
2023-05-10T21:55:19.854Z,26
2023-05-10T22:00:20.154Z,27
2023-05-10T22:05:19.815Z,26
2023-05-10T22:10:19.998Z,26
2023-05-10T22:15:19.939Z,27
2023-05-10T22:20:20.009Z,28
2023-05-10T22:25:19.836Z,26
2023-05-10T22:30:20.040Z,27
2023-05-10T22:35:19.846Z,29
2023-05-10T22:40:16.975Z,27
2023-05-10T22:45:16.729Z,27
2023-05-10T22:50:20.106Z,28
2023-05-10T22:55:19.831Z,28
2023-05-10T23:00:20.295Z,29
2023-05-10T23:05:17.006Z,31
2023-05-10T23:10:20.002Z,32
2023-05-10T23:15:19.874Z,31
2023-05-10T23:20:20.285Z,30
2023-05-10T23:25:19.904Z,30
2023-05-10T23:30:20.056Z,30
2023-05-10T23:35:16.788Z,31
2023-05-10T23:40:17.171Z,32
2023-05-10T23:45:20.102Z,35
2023-05-10T23:50:20.067Z,31
2023-05-10T23:55:19.916Z,34
